createdAt,value
2018-07-17T00:00:36.392Z,101079.03
2018-07-17T00:03:06.462Z,101080.42
2018-07-17T00:05:35.643Z,101064.79
2018-07-17T00:08:06.247Z,101072.69
2018-07-17T00:10:36.262Z,101069.36
2018-07-17T00:13:06.924Z,101072.69
2018-07-17T00:15:36.618Z,101068.95
2018-07-17T00:18:06.708Z,101066.55
2018-07-17T00:20:37.804Z,101059.88
2018-07-17T00:23:09.212Z,101054.92
2018-07-17T00:25:39.953Z,101057.72
2018-07-17T00:28:10.372Z,101065.33
2018-07-17T00:30:39.935Z,101065.73
2018-07-17T00:33:10.122Z,101059.87
2018-07-17T00:35:39.740Z,101064.48
2018-07-17T00:38:10.634Z,101062.84
2018-07-17T00:40:40.190Z,101060.70
2018-07-17T00:43:09.698Z,101061.52
2018-07-17T00:45:39.711Z,101064.06
2018-07-17T00:48:09.190Z,101058.98
2018-07-17T00:50:38.898Z,101057.77
2018-07-17T00:53:09.552Z,101058.56
2018-07-17T00:55:39.896Z,101054.41
2018-07-17T00:58:09.505Z,101054.06
2018-07-17T01:00:46.070Z,101057.01
2018-07-17T01:03:20.997Z,101058.52
2018-07-17T01:05:55.762Z,101052.27
2018-07-17T01:08:30.366Z,101051.42
2018-07-17T01:11:05.120Z,101043.80
2018-07-17T01:13:55.982Z,101049.56
2018-07-17T01:16:25.553Z,101048.69
2018-07-17T01:18:55.069Z,101043.66
2018-07-17T01:21:25.910Z,101047.50
2018-07-17T01:23:55.438Z,101042.84
2018-07-17T01:26:25.206Z,101045.97
2018-07-17T01:28:55.644Z,101044.05
2018-07-17T01:31:25.281Z,101049.73
2018-07-17T01:33:55.693Z,101041.84
2018-07-17T01:36:26.428Z,101038.50
2018-07-17T01:38:55.970Z,101040.14
2018-07-17T01:41:28.309Z,101039.63
2018-07-17T01:43:58.121Z,101027.92
2018-07-17T01:46:27.664Z,101038.82
2018-07-17T01:48:58.485Z,101033.37
2018-07-17T01:51:28.448Z,101034.53
2018-07-17T01:53:59.493Z,101038.66
2018-07-17T01:56:30.370Z,101037.89
2018-07-17T01:59:00.814Z,101039.20
2018-07-17T02:01:30.655Z,101043.88
2018-07-17T02:04:00.112Z,101048.08
2018-07-17T02:06:30.662Z,101040.20
2018-07-17T02:09:01.064Z,101038.08
2018-07-17T02:11:31.778Z,101043.49
2018-07-17T02:14:02.349Z,101049.03
2018-07-17T02:16:33.290Z,101044.39
2018-07-17T02:19:03.862Z,101046.13
2018-07-17T02:21:33.422Z,101046.58
2018-07-17T02:24:03.675Z,101044.55
2018-07-17T02:26:34.112Z,101037.44
2018-07-17T02:29:03.597Z,101038.34
2018-07-17T02:31:33.142Z,101044.26
2018-07-17T02:34:02.340Z,101043.09
2018-07-17T02:36:33.187Z,101038.53
2018-07-17T02:39:02.590Z,101036.41
2018-07-17T02:41:32.416Z,101031.44
2018-07-17T02:44:02.967Z,101041.86
2018-07-17T02:46:33.934Z,101037.65
2018-07-17T02:49:03.457Z,101042.59
2018-07-17T02:51:33.129Z,101038.80
2018-07-17T02:54:02.991Z,101035.05
2018-07-17T02:56:33.179Z,101027.98
2018-07-17T02:59:03.078Z,101035.14
2018-07-17T03:01:32.585Z,101028.09
2018-07-17T03:04:02.266Z,101030.28
2018-07-17T03:06:31.999Z,101033.23
2018-07-17T03:09:03.420Z,101036.63
2018-07-17T03:11:37.808Z,101036.61
2018-07-17T03:14:09.709Z,101031.60
2018-07-17T03:16:38.896Z,101029.46
2018-07-17T03:19:09.554Z,101027.78
2018-07-17T03:21:39.189Z,101025.69
2018-07-17T03:24:08.988Z,101021.45
2018-07-17T03:26:38.747Z,101024.81
2018-07-17T03:29:08.516Z,101026.48
2018-07-17T03:31:38.490Z,101030.66
2018-07-17T03:34:08.299Z,101028.16
2018-07-17T03:36:37.754Z,101023.97
2018-07-17T03:39:08.917Z,101031.48
2018-07-17T03:41:39.668Z,101031.23
2018-07-17T03:44:09.480Z,101033.77
2018-07-17T03:46:38.958Z,101035.87
2018-07-17T03:49:08.800Z,101030.80
2018-07-17T03:51:39.250Z,101034.55
2018-07-17T03:54:09.452Z,101032.44
2018-07-17T03:56:39.063Z,101031.58
2018-07-17T03:59:09.169Z,101033.69
2018-07-17T04:01:38.791Z,101027.03
2018-07-17T04:04:08.518Z,101024.83
2018-07-17T04:06:38.008Z,101022.25
2018-07-17T04:09:08.685Z,101026.75
2018-07-17T04:11:38.500Z,101025.84
2018-07-17T04:14:08.096Z,101025.86
2018-07-17T04:16:41.421Z,101025.47
2018-07-17T04:19:11.389Z,101023.35
2018-07-17T04:21:40.891Z,101021.16
2018-07-17T04:24:10.662Z,101026.45
2018-07-17T04:26:42.227Z,101026.34
2018-07-17T04:29:11.688Z,101025.37
2018-07-17T04:31:41.447Z,101029.56
2018-07-17T04:34:11.322Z,101027.85
2018-07-17T04:36:40.542Z,101032.81
2018-07-17T04:39:13.017Z,101033.98
2018-07-17T04:41:43.368Z,101035.58
2018-07-17T04:44:12.960Z,101039.67
2018-07-17T04:46:42.513Z,101037.05
2018-07-17T04:49:12.511Z,101039.03
2018-07-17T04:51:42.603Z,101036.48
2018-07-17T04:54:13.389Z,101039.30
2018-07-17T04:56:43.208Z,101042.11
2018-07-17T04:59:12.782Z,101040.73
2018-07-17T05:01:42.991Z,101047.36
2018-07-17T05:04:12.431Z,101045.63
2018-07-17T05:06:41.899Z,101045.47
2018-07-17T05:09:11.625Z,101042.85
2018-07-17T05:11:41.183Z,101050.61
2018-07-17T05:14:11.172Z,101059.67
2018-07-17T05:16:41.177Z,101054.05
2018-07-17T05:19:10.711Z,101047.97
2018-07-17T05:21:40.798Z,101050.33
2018-07-17T05:24:10.645Z,101047.66
2018-07-17T05:26:40.112Z,101047.91
2018-07-17T05:29:09.764Z,101042.63
2018-07-17T05:31:39.221Z,101041.58
2018-07-17T05:34:08.876Z,101040.55
2018-07-17T05:36:38.348Z,101040.75
2018-07-17T05:39:10.158Z,101041.83
2018-07-17T05:41:39.601Z,101049.59
2018-07-17T05:44:09.232Z,101051.88
2018-07-17T05:46:38.776Z,101053.80
2018-07-17T05:49:08.360Z,101045.20
2018-07-17T05:51:37.852Z,101048.44
2018-07-17T05:54:07.347Z,101054.66
2018-07-17T05:56:36.987Z,101059.53
2018-07-17T05:59:06.480Z,101057.30
2018-07-17T06:01:36.077Z,101057.16
2018-07-17T06:04:05.907Z,101054.92
2018-07-17T06:06:35.439Z,101052.16
2018-07-17T06:09:06.268Z,101047.69
2018-07-17T06:11:35.724Z,101049.08
2018-07-17T06:14:05.280Z,101048.05
2018-07-17T06:16:34.729Z,101049.92
2018-07-17T06:19:04.395Z,101049.08
2018-07-17T06:21:33.884Z,101052.72
2018-07-17T06:24:03.358Z,101050.11
2018-07-17T06:26:32.849Z,101047.09
2018-07-17T06:29:02.310Z,101054.53
2018-07-17T06:31:31.895Z,101057.31
2018-07-17T06:34:01.729Z,101049.91
2018-07-17T06:36:31.227Z,101050.78
2018-07-17T06:39:00.706Z,101053.13
2018-07-17T06:41:30.269Z,101050.83
2018-07-17T06:43:59.733Z,101054.61
2018-07-17T06:46:29.390Z,101061.69
2018-07-17T06:48:58.906Z,101060.28
2018-07-17T06:51:28.765Z,101053.81
2018-07-17T06:53:58.203Z,101050.77
2018-07-17T06:56:27.635Z,101051.78
2018-07-17T06:58:57.071Z,101057.92
2018-07-17T07:01:26.590Z,101058.53
2018-07-17T07:03:56.050Z,101057.43
2018-07-17T07:06:25.836Z,101059.53
2018-07-17T07:08:55.858Z,101062.54
2018-07-17T07:11:25.328Z,101062.94
2018-07-17T07:13:55.766Z,101061.57
2018-07-17T07:16:25.315Z,101067.48
2018-07-17T07:18:54.725Z,101065.25
2018-07-17T07:21:24.702Z,101064.44
2018-07-17T07:23:54.153Z,101069.31
2018-07-17T07:26:23.809Z,101074.86
2018-07-17T07:28:53.523Z,101068.44
2018-07-17T07:31:23.116Z,101065.23
2018-07-17T07:33:52.743Z,101062.16
2018-07-17T07:36:22.366Z,101059.72
2018-07-17T07:38:51.810Z,101049.95
2018-07-17T07:41:21.534Z,101053.87
2018-07-17T07:43:51.186Z,101054.52
2018-07-17T07:46:21.187Z,101048.45
2018-07-17T07:48:50.797Z,101053.03
2018-07-17T07:51:20.512Z,101049.58
2018-07-17T07:53:50.023Z,101049.31
2018-07-17T07:56:19.550Z,101049.14
2018-07-17T07:58:50.045Z,101053.68
2018-07-17T08:01:19.172Z,101048.91
2018-07-17T08:03:49.449Z,101050.35
2018-07-17T08:06:18.859Z,101045.15
2018-07-17T08:08:48.284Z,101043.17
2018-07-17T08:11:18.102Z,101045.64
2018-07-17T08:13:47.598Z,101043.81
2018-07-17T08:16:17.145Z,101044.11
2018-07-17T08:18:47.033Z,101042.48
2018-07-17T08:21:16.865Z,101044.68
2018-07-17T08:23:46.824Z,101035.28
2018-07-17T08:26:16.581Z,101040.64
2018-07-17T08:28:46.511Z,101046.75
2018-07-17T08:31:16.103Z,101037.58
2018-07-17T08:33:46.103Z,101039.00
2018-07-17T08:36:15.631Z,101038.11
2018-07-17T08:38:45.070Z,101037.05
2018-07-17T08:41:15.270Z,101036.18
2018-07-17T08:43:45.170Z,101031.92
2018-07-17T08:46:15.233Z,101025.76
2018-07-17T08:48:44.382Z,101023.97
2018-07-17T08:51:14.310Z,101019.17
2018-07-17T08:53:44.166Z,101024.48
2018-07-17T08:56:13.594Z,101023.04
2018-07-17T08:58:43.126Z,101020.64
2018-07-17T09:01:12.623Z,101011.27
2018-07-17T09:03:42.278Z,101013.35
2018-07-17T09:06:11.431Z,101019.78
2018-07-17T09:08:40.936Z,101014.87
2018-07-17T09:11:10.761Z,101022.08
2018-07-17T09:13:40.254Z,101018.69
2018-07-17T09:16:09.781Z,101024.54
2018-07-17T09:18:39.873Z,101025.03
2018-07-17T09:21:09.527Z,101029.14
2018-07-17T09:23:40.521Z,101026.73
2018-07-17T09:26:09.992Z,101030.63
2018-07-17T09:28:39.296Z,101022.49
2018-07-17T09:31:08.967Z,101024.30
2018-07-17T09:33:38.599Z,101019.35
2018-07-17T09:36:08.807Z,101020.40
2018-07-17T09:38:38.427Z,101027.09
2018-07-17T09:41:08.109Z,101022.64
2018-07-17T09:43:37.534Z,101016.34
2018-07-17T09:46:07.011Z,101014.51
2018-07-17T09:48:36.549Z,101017.47
2018-07-17T09:51:06.140Z,101017.02
2018-07-17T09:53:35.768Z,101017.40
2018-07-17T09:56:05.439Z,101017.75
2018-07-17T09:58:34.977Z,101017.98
2018-07-17T10:01:09.813Z,101017.19
2018-07-17T10:03:39.442Z,101017.22
2018-07-17T10:06:09.481Z,101026.70
2018-07-17T10:08:39.180Z,101021.36
2018-07-17T10:11:08.468Z,101022.42
2018-07-17T10:13:38.535Z,101020.48
2018-07-17T10:16:08.064Z,101021.70
2018-07-17T10:18:38.005Z,101014.27
2018-07-17T10:21:07.482Z,101017.83
2018-07-17T10:23:37.331Z,101009.98
2018-07-17T10:26:07.431Z,101014.88
2018-07-17T10:28:36.970Z,101010.02
2018-07-17T10:31:06.857Z,101013.45
2018-07-17T10:33:36.717Z,101015.63
2018-07-17T10:36:07.105Z,101013.86
2018-07-17T10:38:37.222Z,101016.53
2018-07-17T10:41:07.271Z,101013.90
2018-07-17T10:43:37.611Z,101009.06
2018-07-17T10:46:07.378Z,101005.73
2018-07-17T10:48:36.848Z,101008.22
2018-07-17T10:51:07.166Z,101009.08
2018-07-17T10:53:36.606Z,101015.38
2018-07-17T10:56:06.229Z,101013.30
2018-07-17T10:58:35.728Z,101019.81
2018-07-17T11:01:06.387Z,101012.12
2018-07-17T11:03:37.730Z,101011.20
2018-07-17T11:06:07.881Z,101015.82
2018-07-17T11:08:38.883Z,101009.22
2018-07-17T11:11:09.831Z,101018.61
2018-07-17T11:13:39.441Z,101010.17
2018-07-17T11:16:08.882Z,101009.19
2018-07-17T11:18:38.421Z,101011.19
2018-07-17T11:21:08.260Z,101006.06
2018-07-17T11:23:43.858Z,100999.72
2018-07-17T11:26:14.311Z,100994.48
2018-07-17T11:28:43.728Z,101001.14
2018-07-17T11:31:14.241Z,100999.88
2018-07-17T11:33:43.785Z,100994.20
2018-07-17T11:36:13.401Z,100991.15
2018-07-17T11:38:43.072Z,100979.50
2018-07-17T11:41:13.266Z,100982.59
2018-07-17T11:43:43.322Z,100990.14
2018-07-17T11:46:12.713Z,100985.08
2018-07-17T11:48:43.057Z,100986.59
2018-07-17T11:51:12.600Z,100973.88
2018-07-17T11:53:41.834Z,100978.12
2018-07-17T11:56:11.385Z,100978.59
2018-07-17T11:58:40.989Z,100984.89
2018-07-17T12:01:10.603Z,100978.66
2018-07-17T12:03:40.673Z,100980.77
2018-07-17T12:06:10.198Z,100979.34
2018-07-17T12:08:39.899Z,100977.04
2018-07-17T12:11:09.488Z,100974.30
2018-07-17T12:13:39.030Z,100978.27
2018-07-17T12:16:08.534Z,100971.16
2018-07-17T12:18:38.355Z,100979.69
2018-07-17T12:21:07.981Z,100975.05
2018-07-17T12:23:37.519Z,100970.19
2018-07-17T12:26:07.513Z,100972.38
2018-07-17T12:28:37.305Z,100971.33
2018-07-17T12:31:07.127Z,100970.88
2018-07-17T12:33:36.646Z,100960.00
2018-07-17T12:36:06.564Z,100963.67
2018-07-17T12:38:36.362Z,100957.55
2018-07-17T12:41:05.853Z,100955.89
2018-07-17T12:43:35.993Z,100955.48
2018-07-17T12:46:05.614Z,100963.67
2018-07-17T12:48:35.077Z,100964.16
2018-07-17T12:51:04.560Z,100954.25
2018-07-17T12:53:34.095Z,100952.55
2018-07-17T12:56:03.620Z,100947.36
2018-07-17T12:58:33.145Z,100955.34
2018-07-17T13:01:02.555Z,100953.83
2018-07-17T13:03:32.153Z,100946.63
2018-07-17T13:06:02.416Z,100951.53
2018-07-17T13:08:32.424Z,100955.67
2018-07-17T13:11:01.884Z,100946.36
2018-07-17T13:13:32.230Z,100938.98
2018-07-17T13:16:02.045Z,100934.34
2018-07-17T13:18:31.578Z,100934.12
2018-07-17T13:21:01.648Z,100929.50
2018-07-17T13:23:31.179Z,100926.48
2018-07-17T13:26:01.417Z,100925.38
2018-07-17T13:28:30.989Z,100937.25
2018-07-17T13:31:00.519Z,100931.22
2018-07-17T13:33:29.959Z,100926.80
2018-07-17T13:36:00.635Z,100925.23
2018-07-17T13:38:30.749Z,100930.11
2018-07-17T13:41:00.293Z,100930.67
2018-07-17T13:43:30.329Z,100933.66
2018-07-17T13:46:00.384Z,100928.11
2018-07-17T13:48:29.909Z,100920.12
2018-07-17T13:50:59.440Z,100920.32
2018-07-17T13:53:29.012Z,100917.44
2018-07-17T13:55:58.573Z,100911.22
2018-07-17T13:58:28.041Z,100915.30
2018-07-17T14:00:57.486Z,100917.38
2018-07-17T14:03:28.369Z,100917.36
2018-07-17T14:05:57.957Z,100912.30
2018-07-17T14:08:27.612Z,100918.87
2018-07-17T14:10:57.135Z,100918.07
2018-07-17T14:13:26.426Z,100910.69
2018-07-17T14:15:56.010Z,100916.59
2018-07-17T14:18:25.537Z,100917.38
2018-07-17T14:20:55.161Z,100916.02
2018-07-17T14:23:25.067Z,100917.86
2018-07-17T14:25:55.236Z,100913.11
2018-07-17T14:28:24.797Z,100906.28
2018-07-17T14:30:54.241Z,100908.88
2018-07-17T14:33:23.767Z,100900.00
2018-07-17T14:35:53.908Z,100901.02
2018-07-17T14:38:23.416Z,100899.06
2018-07-17T14:40:52.860Z,100895.59
2018-07-17T14:43:22.137Z,100902.55
2018-07-17T14:45:51.754Z,100898.52
2018-07-17T14:48:21.878Z,100900.88
2018-07-17T14:50:52.341Z,100900.42
2018-07-17T14:53:21.962Z,100896.45
2018-07-17T14:55:51.596Z,100896.62
2018-07-17T14:58:21.128Z,100898.25
2018-07-17T15:00:50.681Z,100887.73
2018-07-17T15:03:20.701Z,100889.48
2018-07-17T15:05:50.221Z,100890.35
2018-07-17T15:08:19.740Z,100882.78
2018-07-17T15:10:49.308Z,100878.48
2018-07-17T15:13:19.015Z,100882.21
2018-07-17T15:15:48.531Z,100891.64
2018-07-17T15:18:17.775Z,100889.91
2018-07-17T15:20:47.234Z,100896.15
2018-07-17T15:23:16.803Z,100890.72
2018-07-17T15:25:46.513Z,100887.70
2018-07-17T15:28:16.003Z,100888.23
2018-07-17T15:30:45.522Z,100892.84
2018-07-17T15:33:14.911Z,100885.06
2018-07-17T15:35:44.397Z,100881.41
2018-07-17T15:38:14.026Z,100882.92
2018-07-17T15:40:43.522Z,100885.86
2018-07-17T15:43:13.073Z,100877.52
2018-07-17T15:45:42.363Z,100888.09
2018-07-17T15:48:12.164Z,100886.74
2018-07-17T15:50:42.258Z,100892.97
2018-07-17T15:53:12.387Z,100884.48
2018-07-17T15:55:42.104Z,100887.39
2018-07-17T15:58:12.661Z,100883.41
2018-07-17T16:00:42.761Z,100879.25
2018-07-17T16:03:12.594Z,100881.12
2018-07-17T16:05:42.183Z,100886.41
2018-07-17T16:08:11.616Z,100888.16
2018-07-17T16:10:41.506Z,100882.76
2018-07-17T16:13:11.413Z,100892.11
2018-07-17T16:15:40.957Z,100893.64
2018-07-17T16:18:10.169Z,100892.95
2018-07-17T16:20:40.587Z,100895.50
2018-07-17T16:23:10.338Z,100897.38
2018-07-17T16:25:41.557Z,100893.92
2018-07-17T16:28:12.996Z,100885.84
2018-07-17T16:30:42.996Z,100881.72
2018-07-17T16:33:13.858Z,100888.75
2018-07-17T16:35:43.912Z,100885.45
2018-07-17T16:38:14.190Z,100881.45
2018-07-17T16:40:44.455Z,100869.81
2018-07-17T16:43:14.315Z,100880.20
2018-07-17T16:45:43.814Z,100880.55
2018-07-17T16:48:13.414Z,100879.97
2018-07-17T16:50:42.957Z,100882.05
2018-07-17T16:53:12.959Z,100874.91
2018-07-17T16:55:43.048Z,100876.45
2018-07-17T16:58:12.639Z,100873.66
2018-07-17T17:00:42.771Z,100874.66
2018-07-17T17:03:15.570Z,100885.08
2018-07-17T17:05:45.664Z,100891.46
2018-07-17T17:08:16.189Z,100887.09
2018-07-17T17:10:45.940Z,100889.13
2018-07-17T17:13:15.388Z,100882.80
2018-07-17T17:15:44.905Z,100885.36
2018-07-17T17:18:14.681Z,100884.58
2018-07-17T17:20:45.937Z,100886.98
2018-07-17T17:23:15.592Z,100883.62
2018-07-17T17:25:45.201Z,100888.41
2018-07-17T17:28:14.849Z,100890.50
2018-07-17T17:30:44.890Z,100893.16
2018-07-17T17:33:14.976Z,100898.41
2018-07-17T17:35:45.166Z,100888.55
2018-07-17T17:38:15.646Z,100886.07
2018-07-17T17:40:46.410Z,100894.06
2018-07-17T17:43:16.078Z,100892.34
2018-07-17T17:45:45.570Z,100894.63
2018-07-17T17:48:17.144Z,100891.35
2018-07-17T17:50:46.930Z,100908.09
2018-07-17T17:53:17.810Z,100912.66
2018-07-17T17:55:47.621Z,100915.44
2018-07-17T17:58:17.651Z,100918.83
2018-07-17T18:00:47.883Z,100919.16
2018-07-17T18:03:17.980Z,100916.91
2018-07-17T18:05:47.312Z,100912.83
2018-07-17T18:08:16.577Z,100922.84
2018-07-17T18:10:46.128Z,100915.22
2018-07-17T18:13:16.055Z,100916.29
2018-07-17T18:15:46.865Z,100918.00
2018-07-17T18:18:16.661Z,100916.38
2018-07-17T18:20:46.767Z,100919.22
2018-07-17T18:23:16.842Z,100919.77
2018-07-17T18:25:47.738Z,100929.38
2018-07-17T18:28:17.513Z,100928.83
2018-07-17T18:30:47.347Z,100927.59
2018-07-17T18:33:16.937Z,100924.57
2018-07-17T18:35:47.991Z,100929.45
2018-07-17T18:38:17.543Z,100932.25
2018-07-17T18:40:47.408Z,100933.67
2018-07-17T18:43:16.877Z,100939.77
2018-07-17T18:45:47.027Z,100944.54
2018-07-17T18:48:18.438Z,100943.76
2018-07-17T18:50:48.943Z,100945.47
2018-07-17T18:53:18.609Z,100945.82
2018-07-17T18:55:48.222Z,100948.58
2018-07-17T18:58:17.788Z,100952.19
2018-07-17T19:00:47.389Z,100953.75
2018-07-17T19:03:17.497Z,100963.08
2018-07-17T19:05:47.552Z,100959.48
2018-07-17T19:08:17.923Z,100963.81
2018-07-17T19:10:47.451Z,100970.20
2018-07-17T19:13:17.147Z,100974.02
2018-07-17T19:15:46.735Z,100985.34
2018-07-17T19:18:16.778Z,100995.15
2018-07-17T19:20:47.518Z,101002.59
2018-07-17T19:23:17.833Z,101026.13
2018-07-17T19:25:47.839Z,101022.86
2018-07-17T19:28:17.469Z,101020.19
2018-07-17T19:30:47.115Z,101018.59
2018-07-17T19:33:17.297Z,101022.73
2018-07-17T19:35:47.218Z,101028.76
2018-07-17T19:38:16.748Z,101039.60
2018-07-17T19:40:48.341Z,101041.53
2018-07-17T19:43:17.785Z,101045.55
2018-07-17T19:45:47.389Z,101048.01
2018-07-17T19:48:17.613Z,101050.23
2018-07-17T19:50:47.117Z,101051.48
2018-07-17T19:53:16.726Z,101071.89
2018-07-17T19:55:46.531Z,101066.76
2018-07-17T19:58:16.004Z,101072.91
2018-07-17T20:00:45.665Z,101085.84
2018-07-17T20:03:15.248Z,101089.55
2018-07-17T20:05:44.753Z,101085.97
2018-07-17T20:08:14.413Z,101086.91
2018-07-17T20:10:43.910Z,101092.94
2018-07-17T20:13:13.483Z,101102.38
2018-07-17T20:15:42.981Z,101107.90
2018-07-17T20:18:13.138Z,101112.91
2018-07-17T20:20:42.667Z,101116.70
2018-07-17T20:23:12.071Z,101115.97
2018-07-17T20:25:41.319Z,101115.78
2018-07-17T20:28:10.856Z,101120.42
2018-07-17T20:30:42.917Z,101123.40
2018-07-17T20:33:12.425Z,101127.64
2018-07-17T20:35:43.011Z,101127.48
2018-07-17T20:38:13.363Z,101131.93
2018-07-17T20:40:43.045Z,101130.66
2018-07-17T20:43:12.520Z,101134.09
2018-07-17T20:45:42.557Z,101125.72
2018-07-17T20:48:12.159Z,101132.53
2018-07-17T20:50:41.780Z,101129.09
2018-07-17T20:53:11.853Z,101126.82
2018-07-17T20:55:42.691Z,101125.91
2018-07-17T20:58:13.162Z,101130.09
2018-07-17T21:00:43.688Z,101122.58
2018-07-17T21:03:13.833Z,101129.45
2018-07-17T21:05:43.427Z,101130.95
2018-07-17T21:08:12.906Z,101132.92
2018-07-17T21:10:42.341Z,101137.12
2018-07-17T21:13:11.923Z,101139.86
2018-07-17T21:15:41.390Z,101136.48
2018-07-17T21:18:10.937Z,101144.63
2018-07-17T21:20:41.572Z,101138.56
2018-07-17T21:23:10.839Z,101149.09
2018-07-17T21:25:41.925Z,101149.98
2018-07-17T21:28:11.295Z,101151.84
2018-07-17T21:30:41.347Z,101157.78
2018-07-17T21:33:10.657Z,101157.69
2018-07-17T21:35:40.143Z,101151.63
2018-07-17T21:38:09.603Z,101163.27
2018-07-17T21:40:39.099Z,101162.05
2018-07-17T21:43:08.509Z,101164.77
2018-07-17T21:45:38.082Z,101165.67
2018-07-17T21:48:07.861Z,101174.55
2018-07-17T21:50:38.537Z,101172.79
2018-07-17T21:53:08.515Z,101186.61
2018-07-17T21:55:37.987Z,101183.78
2018-07-17T21:58:07.431Z,101178.74
2018-07-17T22:00:37.026Z,101181.37
2018-07-17T22:03:06.497Z,101185.43
2018-07-17T22:05:36.374Z,101193.67
2018-07-17T22:08:06.736Z,101194.45
2018-07-17T22:10:37.255Z,101196.93
2018-07-17T22:13:06.649Z,101206.55
2018-07-17T22:15:35.896Z,101199.84
2018-07-17T22:18:05.704Z,101200.73
2018-07-17T22:20:36.212Z,101206.27
2018-07-17T22:23:06.176Z,101202.20
2018-07-17T22:25:35.931Z,101198.93
2018-07-17T22:28:05.704Z,101198.47
2018-07-17T22:30:35.165Z,101199.15
2018-07-17T22:33:04.609Z,101196.72
2018-07-17T22:35:34.053Z,101198.80
2018-07-17T22:38:05.472Z,101199.64
2018-07-17T22:40:36.219Z,101194.65
2018-07-17T22:43:05.977Z,101195.16
2018-07-17T22:45:35.408Z,101193.56
2018-07-17T22:48:05.038Z,101192.06
2018-07-17T22:50:34.613Z,101193.67
2018-07-17T22:53:04.312Z,101197.55
2018-07-17T22:55:34.952Z,101197.14
2018-07-17T22:58:04.574Z,101193.20
2018-07-17T23:00:34.113Z,101195.41
2018-07-17T23:03:03.996Z,101192.17
2018-07-17T23:05:33.474Z,101189.58
2018-07-17T23:08:02.994Z,101183.73
2018-07-17T23:10:32.542Z,101177.83
2018-07-17T23:13:04.048Z,101185.78
2018-07-17T23:15:34.000Z,101173.97
2018-07-17T23:18:03.484Z,101182.03
2018-07-17T23:20:34.656Z,101172.81
2018-07-17T23:23:04.173Z,101170.31
2018-07-17T23:25:34.613Z,101163.27
2018-07-17T23:28:04.913Z,101165.30
2018-07-17T23:30:34.393Z,101173.48
2018-07-17T23:33:04.482Z,101167.31
2018-07-17T23:35:34.022Z,101173.89
2018-07-17T23:38:04.254Z,101177.02
2018-07-17T23:40:33.710Z,101191.30
2018-07-17T23:43:03.130Z,101194.08
2018-07-17T23:45:32.593Z,101189.67
2018-07-17T23:48:02.275Z,101194.73
2018-07-17T23:50:31.863Z,101194.00
2018-07-17T23:53:01.408Z,101197.67
2018-07-17T23:55:31.516Z,101188.36
2018-07-17T23:58:01.483Z,101190.81
